createdAt,value
2022-12-31T00:01:32.257Z,100.00
2022-12-31T00:03:59.809Z,100.00
2022-12-31T00:06:30.590Z,100.00
2022-12-31T00:09:01.297Z,100.00
2022-12-31T00:11:31.366Z,100.00
2022-12-31T00:13:59.655Z,100.00
2022-12-31T00:16:39.313Z,100.00
2022-12-31T00:19:10.732Z,100.00
2022-12-31T00:21:39.434Z,100.00
2022-12-31T00:24:08.100Z,100.00
2022-12-31T00:26:36.457Z,100.00
2022-12-31T00:29:05.825Z,100.00
2022-12-31T00:31:37.528Z,100.00
2022-12-31T00:34:05.953Z,100.00
2022-12-31T00:36:37.325Z,98.53
2022-12-31T00:39:07.086Z,97.15
2022-12-31T00:41:35.200Z,97.64
2022-12-31T00:44:03.434Z,98.99
2022-12-31T00:46:33.606Z,100.00
2022-12-31T00:49:01.313Z,100.00
2022-12-31T00:51:29.023Z,100.00
2022-12-31T00:53:57.825Z,100.00
2022-12-31T00:56:29.364Z,100.00
2022-12-31T00:58:59.183Z,100.00
2022-12-31T01:01:40.904Z,100.00
2022-12-31T01:04:17.366Z,100.00
2022-12-31T01:06:45.718Z,100.00
2022-12-31T01:09:15.518Z,100.00
2022-12-31T01:11:43.279Z,100.00
2022-12-31T01:14:19.478Z,100.00
2022-12-31T01:16:51.241Z,100.00
2022-12-31T01:19:27.933Z,100.00
2022-12-31T01:21:56.520Z,100.00
2022-12-31T01:24:24.040Z,100.00
2022-12-31T01:26:57.941Z,100.00
2022-12-31T01:29:26.653Z,100.00
2022-12-31T01:31:54.274Z,100.00
2022-12-31T01:34:21.765Z,100.00
2022-12-31T01:36:49.735Z,100.00
2022-12-31T01:39:18.258Z,100.00
2022-12-31T01:41:48.380Z,100.00
2022-12-31T01:44:24.725Z,100.00
2022-12-31T01:47:09.839Z,100.00
2022-12-31T01:49:49.618Z,100.00
2022-12-31T01:52:29.172Z,100.00
2022-12-31T01:55:32.892Z,100.00
2022-12-31T01:58:18.228Z,100.00
2022-12-31T02:00:47.560Z,100.00
2022-12-31T02:03:15.388Z,100.00
2022-12-31T02:06:20.780Z,100.00
2022-12-31T02:08:48.926Z,100.00
2022-12-31T02:11:29.438Z,100.00
2022-12-31T02:14:02.714Z,100.00
2022-12-31T02:16:40.110Z,100.00
2022-12-31T02:19:25.754Z,100.00
2022-12-31T02:22:22.855Z,100.00
2022-12-31T02:25:17.649Z,100.00
2022-12-31T02:28:13.554Z,100.00
2022-12-31T02:30:43.144Z,100.00
2022-12-31T02:33:35.707Z,100.00
2022-12-31T02:36:14.274Z,100.00
2022-12-31T02:38:46.812Z,100.00
2022-12-31T02:41:38.882Z,100.00
2022-12-31T02:44:32.697Z,100.00
2022-12-31T02:47:32.304Z,100.00
2022-12-31T02:50:40.890Z,100.00
2022-12-31T02:53:45.111Z,100.00
2022-12-31T02:56:42.104Z,100.00
2022-12-31T02:59:45.272Z,100.00
2022-12-31T03:02:17.073Z,100.00
2022-12-31T03:04:56.515Z,100.00
2022-12-31T03:07:33.058Z,100.00
2022-12-31T03:10:01.896Z,100.00
2022-12-31T03:12:48.397Z,100.00
2022-12-31T03:15:28.772Z,100.00
2022-12-31T03:18:10.959Z,100.00
2022-12-31T03:21:07.424Z,100.00
2022-12-31T03:23:43.094Z,100.00
2022-12-31T03:26:12.757Z,100.00
2022-12-31T03:28:43.358Z,100.00
2022-12-31T03:31:11.481Z,99.15
2022-12-31T03:33:41.832Z,98.85
2022-12-31T03:36:13.570Z,99.40
2022-12-31T03:38:41.862Z,100.00
2022-12-31T03:41:12.371Z,99.20
2022-12-31T03:43:39.899Z,100.00
2022-12-31T03:46:10.640Z,100.00
2022-12-31T03:48:38.293Z,100.00
2022-12-31T03:51:05.741Z,100.00
2022-12-31T03:53:34.945Z,100.00
2022-12-31T03:56:02.473Z,100.00
2022-12-31T03:58:30.066Z,100.00
2022-12-31T04:00:57.671Z,100.00
2022-12-31T04:03:25.324Z,100.00
2022-12-31T04:05:55.542Z,100.00
2022-12-31T04:08:23.715Z,100.00
2022-12-31T04:10:51.447Z,100.00
2022-12-31T04:13:19.075Z,100.00
2022-12-31T04:15:49.220Z,100.00
2022-12-31T04:18:16.770Z,100.00
2022-12-31T04:20:44.215Z,100.00
2022-12-31T04:23:11.752Z,100.00
2022-12-31T04:25:39.447Z,100.00
2022-12-31T04:28:07.435Z,100.00
2022-12-31T04:30:34.916Z,100.00
2022-12-31T04:33:02.396Z,100.00
2022-12-31T04:35:29.875Z,100.00
2022-12-31T04:37:57.317Z,100.00
2022-12-31T04:40:24.894Z,100.00
2022-12-31T04:42:52.372Z,100.00
2022-12-31T04:45:19.851Z,100.00
2022-12-31T04:47:47.386Z,100.00
2022-12-31T04:50:14.900Z,100.00
2022-12-31T04:52:43.099Z,100.00
2022-12-31T04:55:11.129Z,100.00
2022-12-31T04:57:38.895Z,100.00
2022-12-31T05:00:08.056Z,100.00
2022-12-31T05:02:35.782Z,100.00
2022-12-31T05:05:03.461Z,100.00
2022-12-31T05:07:30.965Z,100.00
2022-12-31T05:09:58.479Z,100.00
2022-12-31T05:12:26.435Z,100.00
2022-12-31T05:14:54.100Z,100.00
2022-12-31T05:17:21.568Z,100.00
2022-12-31T05:19:49.052Z,100.00
2022-12-31T05:22:31.736Z,100.00
2022-12-31T05:25:02.288Z,100.00
2022-12-31T05:27:33.367Z,100.00
2022-12-31T05:30:01.133Z,100.00
2022-12-31T05:32:28.749Z,100.00
2022-12-31T05:34:57.197Z,100.00
2022-12-31T05:37:24.913Z,100.00
2022-12-31T05:39:53.095Z,100.00
2022-12-31T05:42:20.751Z,100.00
2022-12-31T05:44:48.353Z,100.00
2022-12-31T05:47:16.068Z,100.00
2022-12-31T05:49:43.564Z,100.00
2022-12-31T05:52:11.660Z,100.00
2022-12-31T05:54:39.264Z,100.00
2022-12-31T05:57:07.506Z,100.00
2022-12-31T05:59:35.506Z,100.00
2022-12-31T06:02:03.143Z,100.00
2022-12-31T06:04:30.860Z,100.00
2022-12-31T06:06:58.828Z,100.00
2022-12-31T06:09:26.304Z,100.00
2022-12-31T06:11:53.932Z,100.00
2022-12-31T06:14:21.635Z,100.00
2022-12-31T06:16:49.194Z,100.00
2022-12-31T06:19:16.859Z,100.00
2022-12-31T06:21:44.537Z,100.00
2022-12-31T06:24:12.286Z,100.00
2022-12-31T06:26:39.868Z,100.00
2022-12-31T06:29:07.672Z,100.00
2022-12-31T06:31:35.637Z,100.00
2022-12-31T06:34:04.154Z,100.00
2022-12-31T06:36:31.751Z,100.00
2022-12-31T06:39:00.137Z,100.00
2022-12-31T06:41:27.696Z,100.00
2022-12-31T06:43:55.321Z,100.00
2022-12-31T06:46:22.870Z,100.00
2022-12-31T06:48:50.358Z,100.00
2022-12-31T06:51:20.904Z,100.00
2022-12-31T06:53:51.613Z,100.00
2022-12-31T06:56:31.270Z,100.00
2022-12-31T06:59:03.368Z,100.00
2022-12-31T07:02:09.329Z,100.00
2022-12-31T07:05:35.699Z,100.00
2022-12-31T07:08:09.042Z,100.00
2022-12-31T07:11:14.436Z,100.00
2022-12-31T07:13:58.290Z,100.00
2022-12-31T07:16:43.739Z,100.00
2022-12-31T07:19:45.053Z,100.00
2022-12-31T07:22:16.904Z,100.00
2022-12-31T07:24:45.627Z,100.00
2022-12-31T07:27:29.390Z,100.00
2022-12-31T07:30:28.749Z,100.00
2022-12-31T07:33:32.870Z,100.00
2022-12-31T07:36:40.809Z,99.83
2022-12-31T07:39:34.763Z,97.86
2022-12-31T07:42:47.795Z,98.28
2022-12-31T07:45:49.477Z,98.01
2022-12-31T07:48:35.121Z,97.37
2022-12-31T07:51:03.655Z,95.00
2022-12-31T07:53:34.015Z,94.61
2022-12-31T07:56:04.255Z,94.41
2022-12-31T07:58:48.348Z,92.48
2022-12-31T08:01:28.330Z,91.46
2022-12-31T08:04:16.370Z,91.15
2022-12-31T08:07:21.484Z,88.79
2022-12-31T08:10:21.141Z,88.27
2022-12-31T08:12:50.486Z,89.82
2022-12-31T08:15:24.123Z,90.51
2022-12-31T08:17:55.076Z,90.96
2022-12-31T08:20:22.726Z,90.12
2022-12-31T08:23:01.847Z,89.54
2022-12-31T08:26:02.576Z,89.31
2022-12-31T08:29:10.625Z,88.39
2022-12-31T08:32:03.906Z,90.25
2022-12-31T08:35:04.688Z,89.08
2022-12-31T08:37:49.717Z,88.49
2022-12-31T08:40:46.320Z,86.22
2022-12-31T08:43:34.008Z,85.37
2022-12-31T08:46:02.036Z,84.12
2022-12-31T08:48:44.943Z,83.97
2022-12-31T08:51:30.519Z,83.75
2022-12-31T08:53:58.875Z,84.75
2022-12-31T08:56:54.323Z,84.66
2022-12-31T09:00:00.245Z,82.89
2022-12-31T09:03:07.627Z,83.33
2022-12-31T09:05:53.245Z,79.76
2022-12-31T09:08:35.212Z,78.52
2022-12-31T09:11:42.785Z,78.11
2022-12-31T09:14:40.263Z,76.64
2022-12-31T09:17:42.445Z,75.05
2022-12-31T09:20:43.842Z,71.97
2022-12-31T09:23:13.606Z,69.00
2022-12-31T09:25:57.851Z,69.09
2022-12-31T09:29:09.392Z,63.05
2022-12-31T09:32:08.288Z,61.95
2022-12-31T09:34:47.365Z,61.13
2022-12-31T09:37:28.719Z,62.31
2022-12-31T09:40:01.993Z,64.84
2022-12-31T09:43:16.776Z,61.24
2022-12-31T09:46:25.158Z,58.35
2022-12-31T09:49:28.170Z,56.49
2022-12-31T09:52:26.158Z,53.71
2022-12-31T09:55:13.469Z,52.42
2022-12-31T09:58:36.735Z,53.01
2022-12-31T10:01:32.052Z,53.59
2022-12-31T10:04:25.404Z,55.43
2022-12-31T10:07:16.543Z,56.67
2022-12-31T10:10:06.815Z,58.50
2022-12-31T10:12:59.510Z,58.55
2022-12-31T10:16:10.911Z,58.16
2022-12-31T10:19:18.015Z,59.88
2022-12-31T10:22:06.156Z,61.42
2022-12-31T10:25:38.927Z,61.49
2022-12-31T10:28:56.404Z,61.79
2022-12-31T10:32:03.092Z,61.18
2022-12-31T10:34:55.394Z,59.77
2022-12-31T10:37:46.690Z,60.47
2022-12-31T10:41:18.687Z,60.03
2022-12-31T10:44:13.836Z,60.69
2022-12-31T10:47:23.297Z,60.23
2022-12-31T10:49:56.559Z,58.64
2022-12-31T10:52:53.329Z,58.94
2022-12-31T10:55:57.256Z,58.30
2022-12-31T10:58:53.947Z,56.49
2022-12-31T11:01:48.504Z,53.72
2022-12-31T11:04:24.772Z,50.94
2022-12-31T11:07:40.056Z,48.91
2022-12-31T11:10:50.746Z,47.58
2022-12-31T11:13:36.445Z,43.68
2022-12-31T11:16:09.378Z,43.03
2022-12-31T11:19:18.468Z,42.23
2022-12-31T11:22:19.601Z,42.07
2022-12-31T11:25:38.901Z,44.85
2022-12-31T11:28:50.754Z,47.54
2022-12-31T11:32:07.020Z,47.92
2022-12-31T11:35:17.062Z,46.48
2022-12-31T11:38:11.828Z,47.11
2022-12-31T11:41:08.287Z,45.89
2022-12-31T11:43:50.525Z,46.12
2022-12-31T11:46:32.414Z,45.54
2022-12-31T11:49:13.528Z,42.01
2022-12-31T11:52:16.072Z,42.67
2022-12-31T11:55:35.344Z,40.41
2022-12-31T11:58:17.114Z,39.95
2022-12-31T12:01:02.585Z,41.28
2022-12-31T12:03:30.314Z,41.15
2022-12-31T12:05:59.741Z,41.67
2022-12-31T12:08:47.945Z,41.11
2022-12-31T12:11:32.443Z,41.54
2022-12-31T12:14:00.051Z,40.32
2022-12-31T12:16:29.477Z,40.13
2022-12-31T12:19:02.789Z,43.70
2022-12-31T12:21:31.180Z,40.15
2022-12-31T12:24:02.572Z,39.84
2022-12-31T12:26:42.899Z,42.15
2022-12-31T12:29:23.537Z,39.89
2022-12-31T12:32:27.529Z,39.19
2022-12-31T12:34:55.506Z,39.76
2022-12-31T12:37:35.534Z,39.49
2022-12-31T12:40:50.790Z,40.49
2022-12-31T12:43:28.631Z,41.88
2022-12-31T12:46:20.382Z,40.55
2022-12-31T12:48:56.375Z,39.98
2022-12-31T12:51:47.928Z,39.38
2022-12-31T12:54:29.288Z,37.76
2022-12-31T12:57:24.923Z,39.26
2022-12-31T13:00:29.883Z,36.63
2022-12-31T13:03:34.506Z,35.49
2022-12-31T13:06:22.255Z,36.47
2022-12-31T13:08:59.501Z,36.80
2022-12-31T13:11:47.892Z,35.45
2022-12-31T13:14:49.155Z,34.64
2022-12-31T13:18:01.870Z,34.58
2022-12-31T13:21:08.065Z,35.44
2022-12-31T13:24:38.962Z,34.99
2022-12-31T13:27:39.411Z,35.54
2022-12-31T13:30:28.740Z,36.49
2022-12-31T13:33:07.521Z,34.23
2022-12-31T13:35:41.606Z,34.61
2022-12-31T13:38:22.708Z,35.72
2022-12-31T13:41:21.799Z,35.31
2022-12-31T13:44:28.890Z,34.84
2022-12-31T13:47:20.151Z,35.10
2022-12-31T13:49:58.046Z,35.50
2022-12-31T13:52:28.599Z,36.49
2022-12-31T13:55:20.898Z,35.65
2022-12-31T13:58:03.379Z,36.34
2022-12-31T14:00:44.293Z,37.35
2022-12-31T14:03:35.852Z,38.55
2022-12-31T14:06:34.362Z,39.72
2022-12-31T14:09:04.193Z,40.25
2022-12-31T14:11:57.960Z,39.25
2022-12-31T14:15:00.593Z,38.35
2022-12-31T14:18:16.068Z,38.67
2022-12-31T14:21:12.236Z,38.87
2022-12-31T14:24:20.612Z,39.25
2022-12-31T14:26:55.596Z,39.31
2022-12-31T14:29:47.987Z,40.05
2022-12-31T14:32:44.063Z,41.79
2022-12-31T14:35:50.432Z,42.92
2022-12-31T14:38:47.371Z,44.78
2022-12-31T14:42:12.826Z,46.55
2022-12-31T14:48:51.690Z,49.50
2022-12-31T14:56:51.464Z,53.46
2022-12-31T14:59:40.213Z,53.71
2022-12-31T15:02:31.570Z,54.34
2022-12-31T15:05:16.940Z,55.11
2022-12-31T15:08:19.733Z,56.25
2022-12-31T15:11:20.805Z,57.79
2022-12-31T15:14:44.125Z,58.80
2022-12-31T15:17:36.348Z,59.09
2022-12-31T15:20:17.250Z,59.58
2022-12-31T15:22:50.271Z,60.27
2022-12-31T15:25:41.614Z,62.85
2022-12-31T15:28:31.102Z,64.76
2022-12-31T15:31:18.856Z,65.78
2022-12-31T15:34:05.741Z,66.12
2022-12-31T15:36:38.695Z,67.34
2022-12-31T15:39:40.802Z,68.45
2022-12-31T15:42:50.288Z,69.69
2022-12-31T15:45:31.809Z,70.57
2022-12-31T15:48:03.559Z,71.25
2022-12-31T15:50:32.158Z,71.04
2022-12-31T15:53:06.171Z,71.65
2022-12-31T15:55:48.637Z,71.96
2022-12-31T15:58:24.451Z,72.28
2022-12-31T16:01:19.189Z,72.26
2022-12-31T16:04:15.083Z,73.08
2022-12-31T16:06:47.382Z,74.26
2022-12-31T16:09:34.325Z,74.92
2022-12-31T16:12:10.692Z,75.82
2022-12-31T16:14:44.222Z,75.85
2022-12-31T16:17:42.971Z,76.18
2022-12-31T16:20:32.304Z,77.09
2022-12-31T16:23:03.524Z,76.94
2022-12-31T16:25:33.952Z,75.88
2022-12-31T16:28:04.551Z,76.08
2022-12-31T16:30:37.269Z,77.40
2022-12-31T16:33:14.669Z,77.42
2022-12-31T16:35:42.911Z,77.47
2022-12-31T16:38:18.181Z,77.48
2022-12-31T16:41:18.254Z,77.70
2022-12-31T16:43:48.806Z,77.72
2022-12-31T16:46:30.948Z,77.49
2022-12-31T16:49:07.781Z,77.33
2022-12-31T16:51:40.348Z,76.98
2022-12-31T16:54:29.595Z,77.20
2022-12-31T16:56:59.617Z,78.42
2022-12-31T16:59:40.815Z,79.40
2022-12-31T17:02:20.756Z,79.72
2022-12-31T17:04:55.905Z,81.03
2022-12-31T17:07:33.329Z,81.71
2022-12-31T17:10:12.573Z,81.40
2022-12-31T17:15:44.909Z,82.32
2022-12-31T17:18:24.807Z,82.79
2022-12-31T17:21:10.137Z,83.55
2022-12-31T17:23:42.674Z,83.49
2022-12-31T17:26:14.094Z,83.30
2022-12-31T17:28:50.447Z,83.67
2022-12-31T17:31:41.121Z,84.56
2022-12-31T17:34:14.655Z,84.01
2022-12-31T17:37:12.924Z,83.81
2022-12-31T17:39:53.823Z,84.06
2022-12-31T17:42:33.614Z,83.51
2022-12-31T17:45:12.262Z,84.04
2022-12-31T17:47:45.241Z,83.81
2022-12-31T17:50:26.497Z,83.94
2022-12-31T17:53:12.773Z,84.23
2022-12-31T17:55:42.912Z,84.81
2022-12-31T17:58:47.383Z,84.43
2022-12-31T18:01:20.552Z,84.41
2022-12-31T18:03:48.647Z,84.58
2022-12-31T18:06:19.798Z,83.87
2022-12-31T18:08:47.712Z,83.67
2022-12-31T18:11:22.525Z,83.25
2022-12-31T18:13:50.369Z,83.91
2022-12-31T18:16:18.115Z,81.48
2022-12-31T18:18:47.289Z,79.92
2022-12-31T18:21:32.878Z,81.35
2022-12-31T18:26:35.301Z,84.76
2022-12-31T18:29:18.312Z,85.81
2022-12-31T18:31:49.078Z,87.45
2022-12-31T18:34:21.156Z,86.28
2022-12-31T18:36:50.120Z,86.83
2022-12-31T18:39:17.657Z,87.81
2022-12-31T18:41:51.738Z,88.93
2022-12-31T18:44:19.356Z,89.52
2022-12-31T18:46:46.963Z,90.08
2022-12-31T18:49:14.542Z,90.72
2022-12-31T18:51:42.048Z,90.66
2022-12-31T18:54:12.791Z,90.73
2022-12-31T18:56:46.538Z,91.11
2022-12-31T18:59:15.651Z,91.25
2022-12-31T19:01:43.189Z,91.66
2022-12-31T19:04:26.604Z,91.31
2022-12-31T19:06:54.487Z,92.59
2022-12-31T19:12:14.057Z,92.74
2022-12-31T19:14:42.361Z,92.36
2022-12-31T19:19:37.710Z,93.03
2022-12-31T19:22:05.265Z,92.83
2022-12-31T19:24:32.893Z,92.37
2022-12-31T19:27:02.350Z,92.87
2022-12-31T19:29:30.611Z,93.93
2022-12-31T19:32:01.053Z,94.76
2022-12-31T19:34:28.729Z,95.54
2022-12-31T19:36:56.640Z,96.67
2022-12-31T19:39:24.205Z,95.76
2022-12-31T19:41:58.530Z,95.60
2022-12-31T19:44:27.018Z,94.63
2022-12-31T19:46:55.050Z,94.47
2022-12-31T19:49:22.705Z,95.31
2022-12-31T19:51:50.456Z,96.20
2022-12-31T19:54:17.983Z,95.96
2022-12-31T19:56:45.884Z,95.08
2022-12-31T19:59:14.900Z,93.97
2022-12-31T20:01:43.871Z,92.87
2022-12-31T20:04:11.517Z,93.68
2022-12-31T20:06:39.182Z,95.28
2022-12-31T20:09:07.378Z,95.19
2022-12-31T20:11:55.030Z,95.25
2022-12-31T20:14:23.302Z,95.72
2022-12-31T20:16:53.133Z,95.13
2022-12-31T20:19:20.667Z,95.35
2022-12-31T20:21:48.238Z,94.63
2022-12-31T20:24:17.199Z,95.13
2022-12-31T20:26:44.806Z,95.96
2022-12-31T20:29:12.371Z,95.72
2022-12-31T20:31:40.034Z,96.42
2022-12-31T20:34:07.603Z,95.14
2022-12-31T20:36:35.173Z,93.93
2022-12-31T20:39:02.717Z,93.13
2022-12-31T20:41:34.655Z,94.05
2022-12-31T20:44:02.255Z,94.54
2022-12-31T20:46:31.275Z,94.30
2022-12-31T20:49:02.161Z,96.01
2022-12-31T20:51:33.995Z,95.21
2022-12-31T20:54:11.625Z,95.08
2022-12-31T20:56:41.302Z,94.92
2022-12-31T20:59:10.531Z,95.06
2022-12-31T21:02:11.725Z,95.78
2022-12-31T21:04:30.108Z,97.16
2022-12-31T21:06:57.971Z,98.02
2022-12-31T21:09:26.410Z,97.61
2022-12-31T21:12:12.706Z,96.87
2022-12-31T21:14:44.696Z,96.34
2022-12-31T21:17:12.658Z,97.19
2022-12-31T21:19:40.212Z,96.53
2022-12-31T21:22:07.686Z,97.13
2022-12-31T21:24:35.133Z,95.91
2022-12-31T21:27:02.605Z,95.29
2022-12-31T21:29:34.534Z,95.52
2022-12-31T21:32:02.469Z,95.13
2022-12-31T21:34:30.112Z,95.94
2022-12-31T21:36:57.886Z,95.52
2022-12-31T21:39:25.396Z,94.71
2022-12-31T21:41:53.854Z,94.47
2022-12-31T21:44:25.047Z,95.37
2022-12-31T21:47:41.032Z,96.49
2022-12-31T21:50:10.232Z,95.59
2022-12-31T21:52:41.599Z,95.83
2022-12-31T21:55:31.414Z,96.53
2022-12-31T21:58:25.291Z,96.90
2022-12-31T22:01:04.934Z,96.07
2022-12-31T22:03:32.651Z,97.16
2022-12-31T22:06:12.092Z,96.13
2022-12-31T22:08:44.687Z,94.50
2022-12-31T22:11:14.399Z,95.63
2022-12-31T22:13:42.642Z,95.12
2022-12-31T22:16:11.674Z,94.12
2022-12-31T22:18:41.129Z,93.66
2022-12-31T22:21:18.758Z,94.67
2022-12-31T22:23:50.345Z,93.99
2022-12-31T22:26:22.372Z,96.57
2022-12-31T22:28:53.410Z,96.63
2022-12-31T22:31:26.984Z,97.43
2022-12-31T22:33:58.437Z,97.35
2022-12-31T22:36:29.194Z,98.05
2022-12-31T22:39:00.259Z,98.28
2022-12-31T22:41:28.976Z,97.14
2022-12-31T22:44:03.806Z,98.09
2022-12-31T22:46:36.342Z,96.82
2022-12-31T22:49:05.227Z,95.37
2022-12-31T22:51:54.856Z,94.55
2022-12-31T22:54:21.251Z,94.84
2022-12-31T22:56:49.378Z,95.60
2022-12-31T22:59:16.855Z,97.34
2022-12-31T23:01:44.410Z,98.16
2022-12-31T23:04:12.294Z,98.44
2022-12-31T23:06:45.687Z,98.78
2022-12-31T23:09:34.537Z,99.44
2022-12-31T23:12:05.843Z,98.62
2022-12-31T23:14:53.378Z,97.86
2022-12-31T23:17:45.041Z,97.15
2022-12-31T23:20:36.406Z,96.04
2022-12-31T23:23:13.299Z,95.44
2022-12-31T23:25:50.452Z,96.12
2022-12-31T23:28:24.305Z,97.37
2022-12-31T23:30:53.167Z,99.42
2022-12-31T23:33:24.436Z,99.73
2022-12-31T23:36:05.236Z,100.00
2022-12-31T23:38:33.177Z,100.00
2022-12-31T23:41:00.697Z,98.85
2022-12-31T23:43:30.408Z,98.16
2022-12-31T23:45:57.865Z,99.25
2022-12-31T23:48:25.370Z,100.00
2022-12-31T23:50:54.176Z,100.00
2022-12-31T23:53:24.268Z,100.00
2022-12-31T23:55:53.288Z,100.00
2022-12-31T23:58:22.396Z,100.00
